Time;durP1;ratioP1;P1;durP2;ratioP2;P2;SDS_P1;SDS_P2;PMS_P1;PMS_P2;Temp;Humidity;BMP_temperature;BMP_pressure;BME280_temperature;BME280_humidity;BME280_pressure;Samples;Min_cycle;Max_cycle;Signal;HPM_P1;HPM_P2
2022/04/25 00:03:13;;;;;;;5.93;3.20;;;10.50;83.80;;;;;;4844985;29;20050;-91
2022/04/25 00:06:34;;;;;;;7.63;3.00;;;10.50;91.90;;;;;;4844116;29;20053;-92
2022/04/25 00:09:32;;;;;;;5.13;2.90;;;10.70;90.20;;;;;;4846587;29;20058;-92
2022/04/25 00:12:02;;;;;;;8.60;2.80;;;10.80;92.60;;;;;;4828243;29;20110;-92
2022/04/25 00:14:53;;;;;;;6.05;3.15;;;10.70;91.80;;;;;;4843647;29;20060;-91
2022/04/25 00:17:59;;;;;;;4.40;2.40;;;10.70;91.00;;;;;;4837807;29;20046;-91
2022/04/25 00:20:51;;;;;;;8.95;3.05;;;10.50;90.30;;;;;;4811390;29;20046;-91
2022/04/25 00:23:32;;;;;;;5.20;2.47;;;10.50;94.50;;;;;;4824766;29;20050;-91
2022/04/25 00:26:01;;;;;;;6.20;2.40;;;10.50;88.60;;;;;;4809727;29;20533;-92
2022/04/25 00:28:36;;;;;;;9.15;3.08;;;10.60;91.60;;;;;;4810156;29;20497;-92
2022/04/25 00:31:22;;;;;;;9.88;3.13;;;10.60;94.10;;;;;;4810992;29;20050;-91
2022/04/25 00:34:11;;;;;;;6.72;2.80;;;10.60;94.10;;;;;;4824174;29;20046;-92
2022/04/25 00:37:02;;;;;;;4.40;2.50;;;10.40;95.30;;;;;;4825027;29;20050;-91
2022/04/25 00:40:01;;;;;;;9.45;2.97;;;10.60;98.60;;;;;;4811617;29;20053;-92
2022/04/25 00:43:20;;;;;;;11.93;3.38;;;10.30;99.90;;;;;;4813107;29;20061;-90
2022/04/25 00:46:42;;;;;;;10.80;3.35;;;10.30;98.00;;;;;;4837391;29;20198;-91
2022/04/25 00:49:45;;;;;;;8.48;3.10;;;10.30;99.90;;;;;;4811692;29;20070;-92
2022/04/25 00:52:24;;;;;;;9.80;3.15;;;10.40;99.90;;;;;;4803114;29;20458;-91
2022/04/25 00:55:06;;;;;;;9.32;3.55;;;10.30;99.90;;;;;;4827020;29;20576;-90
2022/04/25 00:57:39;;;;;;;12.07;2.83;;;10.40;99.90;;;;;;4843359;29;20045;-92
2022/04/25 01:00:15;;;;;;;8.52;2.30;;;10.20;99.90;;;;;;4827032;29;20050;-92
2022/04/25 01:02:45;;;;;;;6.80;2.85;;;10.20;99.90;;;;;;4857926;29;20344;-89
2022/04/25 01:05:25;;;;;;;6.80;3.00;;;10.30;99.90;;;;;;4828330;29;20078;-92
2022/04/25 01:07:59;;;;;;;7.45;2.50;;;10.40;99.90;;;;;;4842859;29;20046;-91
2022/04/25 01:10:34;;;;;;;7.03;2.85;;;10.50;99.90;;;;;;4842993;29;20046;-91
2022/04/25 01:13:16;;;;;;;5.05;2.83;;;10.30;99.90;;;;;;4843224;29;20042;-92
2022/04/25 01:15:55;;;;;;;8.02;2.63;;;10.00;99.90;;;;;;4843561;29;20042;-91
2022/04/25 01:18:38;;;;;;;9.25;2.88;;;10.10;99.90;;;;;;4842725;29;20042;-91
2022/04/25 01:21:23;;;;;;;5.60;2.67;;;10.20;99.90;;;;;;4828395;29;20118;-92
2022/04/25 01:29:49;;;;;;;7.28;3.75;;;10.10;99.90;;;;;;4843435;29;20045;-93
2022/04/25 01:32:26;;;;;;;4.15;2.95;;;10.10;99.90;;;;;;4842441;29;20576;-91
2022/04/25 01:35:06;;;;;;;7.35;2.95;;;10.20;99.90;;;;;;4842794;29;20105;-91
2022/04/25 01:37:42;;;;;;;6.43;3.55;;;10.30;99.90;;;;;;4827614;29;20053;-91
2022/04/25 01:40:26;;;;;;;13.15;4.13;;;10.20;99.90;;;;;;4827559;29;20088;-91
2022/04/25 01:43:07;;;;;;;7.45;2.38;;;10.20;99.90;;;;;;4827615;29;20095;-91
2022/04/25 01:46:21;;;;;;;5.78;2.75;;;10.40;99.90;;;;;;4842582;29;20054;-92
2022/04/25 01:49:11;;;;;;;5.90;3.10;;;10.30;99.90;;;;;;4858083;29;20049;-92
2022/04/25 01:51:39;;;;;;;9.90;3.67;;;10.10;99.90;;;;;;4843014;29;20041;-91
2022/04/25 01:54:12;;;;;;;10.80;3.88;;;10.10;99.90;;;;;;4842661;29;20046;-92
2022/04/25 01:56:46;;;;;;;12.55;3.63;;;10.20;99.90;;;;;;4842676;29;20080;-91
2022/04/25 01:59:37;;;;;;;;;;;;;;;;;;;;;
2022/04/25 02:02:17;;;;;;;8.02;3.95;;;10.30;99.90;;;;;;4843231;29;20545;-92
2022/04/25 02:04:54;;;;;;;12.73;3.60;;;10.40;99.90;;;;;;4842202;29;20049;-92
2022/04/25 02:07:28;;;;;;;12.63;3.20;;;10.00;99.90;;;;;;4841216;29;20062;-92
2022/04/25 02:10:08;;;;;;;9.38;3.22;;;10.10;99.90;;;;;;4843285;29;20074;-91
2022/04/25 02:12:47;;;;;;;7.90;3.35;;;10.00;99.90;;;;;;4845357;29;20137;-91
2022/04/25 02:15:28;;;;;;;10.75;2.75;;;9.90;99.90;;;;;;4829675;29;20057;-91
2022/04/25 02:18:07;;;;;;;9.45;3.95;;;10.20;99.90;;;;;;4826574;29;20088;-92
2022/04/25 02:20:48;;;;;;;10.43;3.67;;;10.00;99.90;;;;;;4828981;29;20102;-91
2022/04/25 02:23:32;;;;;;;10.23;3.50;;;10.00;99.90;;;;;;4827187;29;20043;-92
2022/04/25 02:26:22;;;;;;;8.98;3.22;;;10.00;99.90;;;;;;4826565;29;20133;-92
2022/04/25 02:29:06;;;;;;;13.18;3.45;;;10.00;99.90;;;;;;4826808;29;20043;-90
2022/04/25 02:31:47;;;;;;;10.43;3.30;;;9.90;99.90;;;;;;4828378;29;20119;-92
2022/04/25 02:34:26;;;;;;;10.50;3.58;;;10.10;99.90;;;;;;4826927;29;20050;-91
2022/04/25 02:37:03;;;;;;;15.30;3.72;;;10.00;99.90;;;;;;4842038;29;20053;-92
2022/04/25 02:39:56;;;;;;;6.68;3.65;;;10.10;99.90;;;;;;4812864;29;20137;-90
2022/04/25 02:42:41;;;;;;;12.27;2.80;;;9.90;99.90;;;;;;4814389;29;20046;-90
2022/04/25 02:45:20;;;;;;;12.88;3.90;;;10.00;99.90;;;;;;4812862;29;20120;-91
2022/04/25 02:48:07;;;;;;;7.75;2.65;;;10.10;99.90;;;;;;4812471;29;20508;-92
2022/04/25 02:50:48;;;;;;;10.80;4.03;;;10.00;99.90;;;;;;4826314;29;20111;-91
2022/04/25 02:53:41;;;;;;;12.93;3.27;;;9.90;99.90;;;;;;4813467;29;20103;-91
2022/04/25 02:56:15;;;;;;;12.80;3.58;;;9.70;99.90;;;;;;4842013;29;20046;-91
2022/04/25 02:58:52;;;;;;;7.65;3.08;;;9.60;99.90;;;;;;4845166;29;20050;-91
2022/04/25 03:01:32;;;;;;;10.90;3.22;;;9.60;99.90;;;;;;4844510;29;20046;-91
2022/04/25 03:04:11;;;;;;;23.92;3.85;;;9.60;99.90;;;;;;4844133;29;20511;-92
2022/04/25 03:07:06;;;;;;;14.30;4.20;;;9.70;99.90;;;;;;4830239;29;20454;-92
2022/04/25 03:09:42;;;;;;;13.73;4.30;;;9.90;99.90;;;;;;4830561;29;20054;-91
2022/04/25 03:12:21;;;;;;;8.23;3.65;;;9.80;99.90;;;;;;4845809;29;20050;-91
2022/04/25 03:14:57;;;;;;;8.25;3.42;;;9.80;99.90;;;;;;4830196;29;20496;-92
2022/04/25 03:17:35;;;;;;;10.27;4.72;;;9.70;99.90;;;;;;4845063;29;20049;-91
2022/04/25 03:20:14;;;;;;;7.47;2.97;;;9.70;99.90;;;;;;4830724;29;20053;-92
2022/04/25 03:22:50;;;;;;;14.20;3.90;;;9.80;99.90;;;;;;4829431;29;20057;-92
2022/04/25 03:25:37;;;;;;;13.32;4.07;;;9.70;99.90;;;;;;4829819;29;20049;-92
2022/04/25 03:28:23;;;;;;;6.03;2.80;;;9.80;99.90;;;;;;4844756;29;20056;-92
2022/04/25 03:31:07;;;;;;;8.30;2.65;;;9.90;99.90;;;;;;4844648;29;20085;-91
2022/04/25 03:33:44;;;;;;;9.43;3.40;;;9.70;99.90;;;;;;4843833;29;20042;-91
2022/04/25 03:36:18;;;;;;;8.30;3.78;;;9.80;99.90;;;;;;4844769;29;20049;-91
2022/04/25 03:39:17;;;;;;;;;;;;;;;;;;;;;
2022/04/25 03:42:17;;;;;;;6.25;3.47;;;9.90;99.90;;;;;;4843787;29;20050;-92
2022/04/25 03:44:56;;;;;;;8.27;2.92;;;10.00;99.90;;;;;;4843165;29;20141;-92
2022/04/25 03:47:35;;;;;;;13.52;3.97;;;10.00;99.90;;;;;;4843554;29;20050;-93
2022/04/25 03:50:36;;;;;;;9.25;3.08;;;10.00;99.90;;;;;;4829112;29;20424;-92
2022/04/25 03:53:30;;;;;;;10.13;2.83;;;10.00;99.90;;;;;;4843601;29;20121;-91
2022/04/25 03:59:02;;;;;;;7.85;3.30;;;10.00;99.90;;;;;;4845144;29;20132;-92
2022/04/25 04:01:56;;;;;;;9.45;3.72;;;9.70;99.90;;;;;;4845932;29;20061;-91
2022/04/25 04:04:46;;;;;;;11.52;3.35;;;9.90;99.90;;;;;;4845005;29;20042;-92
2022/04/25 04:08:01;;;;;;;12.70;3.35;;;10.10;99.90;;;;;;4859024;29;20054;-91
2022/04/25 04:10:49;;;;;;;6.63;3.10;;;9.90;99.90;;;;;;4844989;29;20070;-91
2022/04/25 04:13:49;;;;;;;13.88;3.35;;;9.90;99.90;;;;;;4843298;29;20141;-92
2022/04/25 04:16:42;;;;;;;13.45;3.22;;;9.90;99.90;;;;;;4815727;29;20105;-92
2022/04/25 04:19:28;;;;;;;9.50;2.63;;;10.00;99.90;;;;;;4820404;29;20090;-92
2022/04/25 04:22:14;;;;;;;12.07;3.28;;;10.00;99.90;;;;;;4843078;29;20042;-92
2022/04/25 04:25:09;;;;;;;5.00;2.45;;;9.80;99.90;;;;;;4843718;29;20050;-92
2022/04/25 04:28:06;;;;;;;10.88;3.60;;;9.90;99.90;;;;;;4829250;29;20106;-91
2022/04/25 04:30:46;;;;;;;6.05;3.35;;;9.90;99.90;;;;;;4828065;29;20046;-91
2022/04/25 04:33:26;;;;;;;15.85;4.85;;;9.90;99.90;;;;;;4841989;29;20073;-91
2022/04/25 04:36:22;;;;;;;7.20;2.72;;;9.80;99.90;;;;;;4838702;29;20056;-92
2022/04/25 04:39:04;;;;;;;18.88;2.63;;;9.80;99.90;;;;;;4842343;29;20111;-92
2022/04/25 04:41:45;;;;;;;9.05;2.70;;;9.90;99.90;;;;;;4842654;29;20066;-92
2022/04/25 04:44:15;;;;;;;13.45;2.50;;;10.00;99.90;;;;;;4828310;29;20069;-91
2022/04/25 04:46:45;;;;;;;7.25;2.78;;;9.70;99.90;;;;;;4842630;29;20045;-90
2022/04/25 04:49:11;;;;;;;6.10;2.50;;;9.70;99.90;;;;;;4844070;29;20042;-90
2022/04/25 04:51:39;;;;;;;5.60;2.38;;;9.80;99.90;;;;;;4827121;29;20053;-91
2022/04/25 04:54:06;;;;;;;3.35;1.70;;;9.70;99.90;;;;;;4842676;29;20388;-91
2022/04/25 04:56:42;;;;;;;13.77;3.03;;;9.80;99.90;;;;;;4838277;29;20039;-93
2022/04/25 04:59:11;;;;;;;10.13;3.03;;;9.50;99.90;;;;;;4824438;29;20413;-91
2022/04/25 05:01:44;;;;;;;10.70;2.78;;;9.60;99.90;;;;;;4824285;29;20054;-92
2022/04/25 05:04:11;;;;;;;8.73;3.15;;;9.70;99.90;;;;;;4820285;29;20053;-92
2022/04/25 05:06:39;;;;;;;10.25;2.25;;;9.80;99.90;;;;;;4842404;29;20050;-90
2022/04/25 05:15:25;;;;;;;8.27;3.10;;;9.90;99.90;;;;;;4843159;29;20068;-92
2022/04/25 05:18:20;;;;;;;5.90;2.80;;;9.70;99.90;;;;;;4828800;29;20481;-92
2022/04/25 05:20:50;;;;;;;7.03;2.70;;;9.60;99.90;;;;;;4809617;29;20448;-90
2022/04/25 05:33:06;;;;;;;9.27;3.17;;;9.60;99.90;;;;;;4552328;23;20060;-92
2022/04/25 05:35:44;;;;;;;;;;;9.70;99.90;;;;;;4871581;29;20492;-92
2022/04/25 05:38:28;;;;;;;7.90;2.45;;;9.60;99.90;;;;;;4879855;29;20022;-90
2022/04/25 05:41:14;;;;;;;7.47;2.85;;;9.50;99.90;;;;;;4879853;29;20060;-91
2022/04/25 05:44:05;;;;;;;7.70;2.80;;;9.70;99.90;;;;;;4888302;29;20568;-90
2022/04/25 05:47:03;;;;;;;4.28;2.45;;;9.60;99.90;;;;;;4852226;29;20044;-91
2022/04/25 05:52:33;;;;;;;7.70;2.22;;;9.50;99.90;;;;;;4865782;29;20052;-90
2022/04/25 07:10:39;;;;;;;10.98;2.28;;;9.60;99.90;;;;;;4880492;29;20163;-85
2022/04/25 07:13:13;;;;;;;13.38;2.95;;;9.70;99.90;;;;;;4881301;29;20053;-88
2022/04/25 07:16:09;;;;;;;4.80;2.03;;;9.60;99.90;;;;;;4881141;29;20041;-91
2022/04/25 07:18:46;;;;;;;7.53;2.60;;;9.60;99.90;;;;;;4852913;29;20461;-92
2022/04/25 07:30:05;;;;;;;8.18;2.78;;;9.90;99.90;;;;;;4877932;29;20055;-92
2022/04/25 07:32:39;;;;;;;8.82;2.28;;;9.80;99.90;;;;;;4865575;29;20049;-92
2022/04/25 07:35:07;;;;;;;13.10;2.65;;;9.90;99.90;;;;;;4861916;29;20072;-91
2022/04/25 07:37:40;;;;;;;11.13;2.80;;;9.70;99.90;;;;;;4861955;29;20042;-90
2022/04/25 07:40:55;;;;;;;8.82;2.22;;;9.70;99.90;;;;;;4848002;29;20158;-93
2022/04/25 07:43:34;;;;;;;5.25;2.08;;;9.50;99.90;;;;;;4853992;29;20523;-92
2022/04/25 07:46:40;;;;;;;7.95;2.42;;;9.60;99.90;;;;;;4861687;29;20061;-90
2022/04/25 07:49:33;;;;;;;5.05;2.63;;;9.60;99.90;;;;;;4790004;29;20047;-91
2022/04/25 07:52:01;;;;;;;11.95;3.63;;;9.80;99.90;;;;;;4790361;29;20055;-92
2022/04/25 07:54:29;;;;;;;10.20;2.95;;;9.80;99.90;;;;;;4790019;29;20043;-90
2022/04/25 07:56:56;;;;;;;10.85;2.28;;;9.60;99.90;;;;;;4792520;29;20088;-88
2022/04/25 07:59:24;;;;;;;10.30;2.88;;;9.50;99.90;;;;;;4787252;30;20059;-90
2022/04/25 08:01:52;;;;;;;8.70;2.95;;;9.50;99.90;;;;;;4787729;30;20047;-91
2022/04/25 08:04:21;;;;;;;3.60;1.90;;;9.60;99.90;;;;;;4787336;29;20070;-91
2022/04/25 08:06:51;;;;;;;7.03;2.35;;;9.50;99.90;;;;;;4834915;29;20080;-90
2022/04/25 08:09:19;;;;;;;8.48;2.78;;;9.50;99.90;;;;;;4862261;29;20069;-90
2022/04/25 08:11:48;;;;;;;7.32;3.05;;;9.50;99.90;;;;;;4831089;29;20516;-90
2022/04/25 08:19:44;;;;;;;7.28;3.22;;;9.50;99.90;;;;;;4885114;29;20060;-92
2022/04/25 08:22:12;;;;;;;9.30;3.15;;;9.40;99.90;;;;;;4885222;29;20056;-90
2022/04/25 08:24:39;;;;;;;9.85;3.08;;;9.70;99.90;;;;;;4861924;29;20061;-90
2022/04/25 08:27:06;;;;;;;7.50;2.45;;;9.60;99.90;;;;;;4861120;29;20106;-89
2022/04/25 08:29:36;;;;;;;7.93;3.13;;;9.70;99.90;;;;;;4859145;29;20110;-91
2022/04/25 08:32:03;;;;;;;12.57;3.60;;;9.70;99.90;;;;;;4845299;29;20136;-89
2022/04/25 08:34:30;;;;;;;4.25;2.55;;;9.60;99.90;;;;;;4860170;29;20051;-89
2022/04/25 08:36:57;;;;;;;14.02;3.00;;;9.70;99.90;;;;;;4860205;29;20136;-90
2022/04/25 08:39:24;;;;;;;13.90;2.70;;;9.80;99.90;;;;;;4860528;29;20042;-84
2022/04/25 08:42:00;;;;;;;7.13;2.63;;;9.80;99.90;;;;;;4865008;29;20411;-91
2022/04/25 08:44:32;;;;;;;6.72;2.63;;;9.80;99.90;;;;;;4876070;29;20082;-91
2022/04/25 08:47:03;;;;;;;7.88;2.67;;;10.00;99.90;;;;;;4845943;29;20106;-89
2022/04/25 08:49:29;;;;;;;11.55;2.90;;;9.90;99.90;;;;;;4866908;29;20566;-90
2022/04/25 08:52:00;;;;;;;9.85;3.58;;;10.00;99.90;;;;;;4870402;29;20487;-90
2022/04/25 08:54:32;;;;;;;6.68;3.47;;;10.00;99.90;;;;;;4866451;29;20065;-92
2022/04/25 08:56:59;;;;;;;11.98;2.95;;;9.90;99.90;;;;;;4846813;29;20050;-91
2022/04/25 08:59:26;;;;;;;10.43;3.80;;;9.90;99.90;;;;;;4879347;29;20491;-90
2022/04/25 09:01:53;;;;;;;6.53;3.15;;;9.90;99.90;;;;;;4863921;29;20105;-91
2022/04/25 09:04:21;;;;;;;10.50;3.65;;;9.90;99.90;;;;;;4878936;29;20515;-91
2022/04/25 09:06:51;;;;;;;6.85;3.28;;;9.90;99.90;;;;;;4879331;29;20040;-91
2022/04/25 09:09:18;;;;;;;4.47;2.65;;;10.00;99.90;;;;;;4879269;29;20041;-91
2022/04/25 09:14:32;;;;;;;9.43;3.88;;;10.10;99.90;;;;;;4867922;29;20551;-91
2022/04/25 09:17:03;;;;;;;11.15;4.28;;;9.90;99.90;;;;;;4862822;29;20042;-92
2022/04/25 09:19:31;;;;;;;9.77;3.15;;;10.10;99.90;;;;;;4845361;29;20064;-91
2022/04/25 09:21:59;;;;;;;10.68;3.50;;;10.40;99.90;;;;;;4859885;29;20042;-89
2022/04/25 09:24:34;;;;;;;10.25;3.83;;;10.40;99.90;;;;;;4845386;29;20049;-91
2022/04/25 09:27:12;;;;;;;11.23;4.15;;;10.20;99.90;;;;;;4845737;29;20073;-91
2022/04/25 09:29:41;;;;;;;14.07;3.85;;;10.30;99.90;;;;;;4861599;29;20046;-89
2022/04/25 09:32:09;;;;;;;9.70;3.28;;;10.60;99.90;;;;;;4861628;29;20040;-92
2022/04/25 09:37:46;;;;;;;8.77;3.70;;;10.70;99.90;;;;;;4860868;29;20094;-91
2022/04/25 09:40:19;;;;;;;8.35;3.30;;;10.80;99.90;;;;;;4860467;29;20045;-89
2022/04/25 09:42:47;;;;;;;13.90;4.07;;;10.50;99.90;;;;;;4861393;29;20045;-90
2022/04/25 09:45:18;;;;;;;8.32;2.95;;;10.70;99.90;;;;;;4861604;29;20066;-90
2022/04/25 09:47:50;;;;;;;5.95;2.83;;;10.60;99.90;;;;;;4834805;29;20544;-90
2022/04/25 09:50:17;;;;;;;12.68;3.78;;;10.70;99.90;;;;;;4867528;29;20538;-89
2022/04/25 09:53:05;;;;;;;7.63;2.97;;;10.70;99.90;;;;;;4847213;29;20152;-90
2022/04/25 09:55:35;;;;;;;9.40;3.05;;;10.80;99.90;;;;;;4844630;29;20133;-90
2022/04/25 09:58:19;;;;;;;8.15;3.03;;;11.00;99.90;;;;;;4849287;29;20052;-90
2022/04/25 10:00:47;;;;;;;9.40;3.08;;;10.60;99.90;;;;;;4876420;29;20056;-90
2022/04/25 10:03:17;;;;;;;10.38;2.97;;;10.80;99.90;;;;;;4858812;29;20070;-90
2022/04/25 10:05:51;;;;;;;9.63;3.35;;;11.00;99.90;;;;;;4857304;29;20052;-87
2022/04/25 10:08:19;;;;;;;10.20;2.63;;;10.80;99.90;;;;;;4858023;29;20049;-91
2022/04/25 10:10:56;;;;;;;7.60;3.00;;;10.80;99.90;;;;;;4858491;29;20053;-89
2022/04/25 10:13:25;;;;;;;11.48;3.55;;;10.90;99.90;;;;;;4857880;29;20053;-89
2022/04/25 10:15:52;;;;;;;7.22;3.33;;;10.70;99.90;;;;;;4865640;29;20052;-90
2022/04/25 10:18:20;;;;;;;7.53;2.72;;;10.70;99.90;;;;;;4843627;29;20054;-92
2022/04/25 10:20:47;;;;;;;8.73;3.67;;;11.00;99.90;;;;;;4858712;29;20555;-90
2022/04/25 10:23:16;;;;;;;6.82;2.88;;;11.00;99.90;;;;;;4857901;29;20060;-89
2022/04/25 10:25:57;;;;;;;4.50;2.58;;;11.00;99.90;;;;;;4858005;29;20506;-88
2022/04/25 10:28:44;;;;;;;8.90;2.80;;;11.00;99.90;;;;;;4858381;29;20054;-91
2022/04/25 10:31:20;;;;;;;6.40;2.70;;;11.20;99.90;;;;;;4858000;29;20065;-90
2022/04/25 10:33:58;;;;;;;4.70;1.90;;;11.50;99.90;;;;;;4862685;29;20487;-90
2022/04/25 10:36:37;;;;;;;7.25;2.42;;;11.80;99.90;;;;;;4861763;29;20137;-89
2022/04/25 10:39:23;;;;;;;5.88;2.97;;;11.90;99.90;;;;;;4861329;29;20548;-91
2022/04/25 10:44:43;;;;;;;9.48;2.28;;;11.90;99.90;;;;;;4862661;29;20037;-90
2022/04/25 10:47:27;;;;;;;7.15;3.25;;;11.80;99.90;;;;;;4868319;29;20106;-89
2022/04/25 10:49:54;;;;;;;6.07;2.22;;;11.70;99.90;;;;;;4877111;29;20046;-88
2022/04/25 10:52:34;;;;;;;13.70;3.05;;;11.80;99.90;;;;;;4863469;29;20564;-91
2022/04/25 10:55:13;;;;;;;11.88;2.47;;;11.70;99.90;;;;;;4861718;29;20136;-92
2022/04/25 10:58:02;;;;;;;6.35;2.47;;;11.60;99.90;;;;;;4861574;29;20041;-92
2022/04/25 11:00:36;;;;;;;9.45;2.83;;;11.50;99.90;;;;;;4846121;29;20491;-90
2022/04/25 11:03:04;;;;;;;5.82;2.38;;;11.40;99.90;;;;;;4861065;29;20049;-91
2022/04/25 11:05:31;;;;;;;5.90;2.33;;;11.60;99.90;;;;;;4845733;29;20054;-90
2022/04/25 11:08:23;;;;;;;7.30;2.22;;;11.70;99.90;;;;;;4861415;29;20057;-91
2022/04/25 11:10:57;;;;;;;10.55;2.20;;;11.40;99.90;;;;;;4862728;29;20122;-91
2022/04/25 11:13:26;;;;;;;5.28;2.30;;;11.50;99.90;;;;;;4865024;29;20069;-90
2022/04/25 11:16:19;;;;;;;6.90;2.65;;;11.60;99.90;;;;;;4874106;29;20087;-89
2022/04/25 11:19:12;;;;;;;8.55;1.90;;;11.70;99.90;;;;;;4876731;29;20053;-91
2022/04/25 11:21:49;;;;;;;8.35;2.28;;;11.70;99.90;;;;;;4862449;29;20404;-91
2022/04/25 11:24:28;;;;;;;10.05;2.50;;;11.50;99.90;;;;;;4862620;29;20453;-92
2022/04/25 11:26:58;;;;;;;7.80;2.15;;;11.50;99.90;;;;;;4847863;29;20576;-91
2022/04/25 11:29:25;;;;;;;5.00;2.17;;;11.50;99.90;;;;;;4862723;29;20046;-91
2022/04/25 11:32:28;;;;;;;8.40;1.92;;;11.30;99.90;;;;;;4862482;29;20106;-91
2022/04/25 11:34:59;;;;;;;4.90;1.60;;;11.60;99.90;;;;;;4862186;29;20411;-91
2022/04/25 11:37:28;;;;;;;11.82;3.42;;;11.60;99.90;;;;;;4862146;29;20104;-91
2022/04/25 11:39:57;;;;;;;11.80;2.45;;;11.30;99.90;;;;;;4863525;29;20490;-91
2022/04/25 11:42:27;;;;;;;4.03;2.17;;;11.40;99.90;;;;;;4879938;29;20053;-90
2022/04/25 11:44:55;;;;;;;8.43;2.63;;;11.20;99.90;;;;;;4879742;29;20053;-92
2022/04/25 11:47:23;;;;;;;8.43;2.22;;;11.10;99.90;;;;;;4880833;29;20408;-91
2022/04/25 11:50:12;;;;;;;7.97;2.45;;;11.20;99.90;;;;;;4866314;29;20041;-92
2022/04/25 11:52:51;;;;;;;6.18;2.63;;;11.10;99.90;;;;;;4861484;29;20148;-91
2022/04/25 11:55:31;;;;;;;4.97;1.60;;;11.30;99.90;;;;;;4847074;29;20045;-90
2022/04/25 11:57:59;;;;;;;7.72;2.67;;;11.30;99.90;;;;;;4863658;29;20050;-91
2022/04/25 12:00:27;;;;;;;9.07;1.83;;;11.40;99.90;;;;;;4846530;29;20048;-91
2022/04/25 12:03:01;;;;;;;10.77;2.35;;;11.50;99.90;;;;;;4865349;29;20150;-91
2022/04/25 12:05:31;;;;;;;6.40;2.30;;;11.50;99.90;;;;;;4872523;29;20425;-92
2022/04/25 12:16:19;;;;;;;7.32;2.10;;;11.10;99.90;;;;;;4872078;29;20067;-90
2022/04/25 12:18:51;;;;;;;8.93;2.30;;;11.30;99.90;;;;;;4860111;29;20049;-91
2022/04/25 12:21:20;;;;;;;7.80;2.07;;;11.70;99.90;;;;;;4859858;29;20503;-89
2022/04/25 12:23:53;;;;;;;6.32;2.22;;;11.70;99.90;;;;;;4844422;29;20045;-91
2022/04/25 12:26:24;;;;;;;9.75;3.00;;;11.40;99.90;;;;;;4859683;29;20053;-90
2022/04/25 12:28:55;;;;;;;11.77;2.97;;;11.00;99.90;;;;;;4859728;29;20086;-91
2022/04/25 12:31:23;;;;;;;5.80;1.77;;;10.90;99.90;;;;;;4860367;29;20057;-91
2022/04/25 12:33:50;;;;;;;8.57;2.30;;;11.00;99.90;;;;;;4860321;29;20053;-91
2022/04/25 12:36:19;;;;;;;9.10;3.30;;;11.30;99.90;;;;;;4859376;29;20046;-90
2022/04/25 12:38:55;;;;;;;8.77;2.13;;;11.10;99.90;;;;;;4859659;29;20046;-92
2022/04/25 12:41:25;;;;;;;7.03;2.60;;;11.30;99.90;;;;;;4865497;29;20052;-90
2022/04/25 12:43:55;;;;;;;5.10;2.33;;;11.00;99.90;;;;;;4866141;29;20053;-91
2022/04/25 12:46:55;;;;;;;11.00;2.33;;;11.00;99.90;;;;;;4871709;29;20121;-91
2022/04/25 12:49:38;;;;;;;8.70;2.28;;;10.90;99.90;;;;;;4859745;29;20056;-91
2022/04/25 12:52:10;;;;;;;3.97;1.80;;;11.00;99.90;;;;;;4859072;29;20049;-91
2022/04/25 12:54:43;;;;;;;7.68;2.10;;;10.90;99.90;;;;;;4858814;29;20052;-90
2022/04/25 12:57:18;;;;;;;3.60;2.00;;;10.80;99.90;;;;;;4862239;29;20512;-91
2022/04/25 12:59:48;;;;;;;6.88;2.10;;;10.90;99.90;;;;;;4859048;29;20264;-91
2022/04/25 13:02:17;;;;;;;5.82;1.95;;;11.00;99.90;;;;;;4859058;29;20149;-91
2022/04/25 13:04:58;;;;;;;5.85;2.10;;;10.90;99.90;;;;;;4858769;29;20484;-90
2022/04/25 13:07:31;;;;;;;4.63;2.22;;;11.10;99.90;;;;;;4874036;29;20504;-91
2022/04/25 13:10:00;;;;;;;12.05;2.72;;;11.20;99.90;;;;;;4859533;29;20057;-91
2022/04/25 13:12:36;;;;;;;5.88;2.05;;;11.30;99.90;;;;;;4859142;29;20046;-90
2022/04/25 13:15:06;;;;;;;12.70;2.60;;;11.20;99.90;;;;;;4843992;29;20053;-92
2022/04/25 13:17:38;;;;;;;4.88;1.85;;;11.30;99.90;;;;;;4877057;29;20045;-91
2022/04/25 13:20:07;;;;;;;7.15;2.42;;;11.50;99.90;;;;;;4877880;29;20051;-91
2022/04/25 13:22:34;;;;;;;3.25;1.92;;;11.30;99.90;;;;;;4862080;29;20056;-91
2022/04/25 13:25:03;;;;;;;4.30;2.20;;;11.40;99.90;;;;;;4870603;29;20685;-91
2022/04/25 13:27:32;;;;;;;8.73;2.47;;;11.40;99.90;;;;;;4860194;29;20053;-90
2022/04/25 13:29:59;;;;;;;5.80;1.42;;;11.20;99.90;;;;;;4876296;29;20077;-92
2022/04/25 13:32:27;;;;;;;3.70;1.63;;;11.30;99.90;;;;;;4877430;29;20380;-91
2022/04/25 13:34:54;;;;;;;8.50;2.20;;;11.50;99.90;;;;;;4877625;29;20045;-89
2022/04/25 13:37:23;;;;;;;6.72;1.98;;;11.60;99.90;;;;;;4879760;29;20041;-92
2022/04/25 13:39:50;;;;;;;4.47;1.70;;;11.70;99.90;;;;;;4863971;29;20056;-90
2022/04/25 13:42:18;;;;;;;7.82;2.70;;;11.50;99.90;;;;;;4879266;29;20113;-91
2022/04/25 13:44:46;;;;;;;8.95;2.45;;;11.40;99.90;;;;;;4877713;29;20064;-92
2022/04/25 13:47:13;;;;;;;8.23;2.28;;;11.60;99.90;;;;;;4877245;29;20113;-90
2022/04/25 13:49:40;;;;;;;5.35;1.48;;;11.70;99.90;;;;;;4877757;29;20052;-91
2022/04/25 13:52:08;;;;;;;3.60;1.75;;;11.70;99.90;;;;;;4877494;29;20402;-92
2022/04/25 13:54:35;;;;;;;5.50;2.10;;;11.80;99.90;;;;;;4876993;29;20049;-91
2022/04/25 13:57:04;;;;;;;5.95;2.40;;;11.50;99.90;;;;;;4876911;29;20078;-92
2022/04/25 13:59:34;;;;;;;7.18;2.10;;;11.60;99.90;;;;;;4877277;29;20128;-90
2022/04/25 14:03:05;;;;;;;5.53;1.95;;;11.60;99.90;;;;;;4874465;29;20153;-91
2022/04/25 14:04:49;;;;;;;6.13;2.20;;;11.70;99.90;;;;;;4844645;29;20145;-90
2022/04/25 14:07:17;;;;;;;14.05;2.70;;;11.50;99.90;;;;;;4860118;29;20539;-90
2022/04/25 14:09:44;;;;;;;5.13;1.95;;;11.60;99.90;;;;;;4867600;29;20049;-90
2022/04/25 14:12:13;;;;;;;2.55;1.63;;;11.70;99.90;;;;;;4862238;29;20049;-90
2022/04/25 14:14:40;;;;;;;6.40;1.40;;;11.70;99.90;;;;;;4861751;29;20124;-90
2022/04/25 14:17:09;;;;;;;4.28;1.77;;;11.60;99.90;;;;;;4864439;29;20462;-92
2022/04/25 14:19:48;;;;;;;6.40;1.90;;;11.50;99.90;;;;;;4862810;29;20069;-89
2022/04/25 14:22:21;;;;;;;8.32;2.25;;;11.60;99.90;;;;;;4863491;29;20144;-90
2022/04/25 14:24:53;;;;;;;7.88;2.10;;;11.40;99.90;;;;;;4857516;29;20037;-91
2022/04/25 14:27:21;;;;;;;6.70;2.28;;;11.50;99.90;;;;;;4880567;29;20490;-90
2022/04/25 14:29:48;;;;;;;10.23;2.45;;;11.40;99.90;;;;;;4864773;29;20399;-91
2022/04/25 14:32:15;;;;;;;6.32;2.55;;;11.40;99.90;;;;;;4880221;29;20049;-91
2022/04/25 14:34:44;;;;;;;5.88;2.05;;;11.50;99.90;;;;;;4880525;29;20132;-90
2022/04/25 14:37:14;;;;;;;3.15;1.73;;;11.50;99.90;;;;;;4864233;29;20703;-91
2022/04/25 14:39:42;;;;;;;9.60;3.50;;;11.20;99.90;;;;;;4881129;29;20056;-90
2022/04/25 14:42:11;;;;;;;7.07;1.95;;;11.20;99.90;;;;;;4864818;29;20491;-91
2022/04/25 14:44:38;;;;;;;5.63;2.05;;;11.20;99.90;;;;;;4864143;29;20048;-90
2022/04/25 14:47:06;;;;;;;5.95;1.65;;;11.20;99.90;;;;;;4863828;29;20049;-91
2022/04/25 14:55:05;;;;;;;4.55;2.33;;;11.50;99.90;;;;;;4865618;29;20053;-90
2022/04/25 14:57:32;;;;;;;3.35;1.77;;;11.30;99.90;;;;;;4863673;29;20510;-90
2022/04/25 14:59:59;;;;;;;5.47;1.75;;;11.20;99.90;;;;;;4878939;29;20077;-90
2022/04/25 15:02:26;;;;;;;5.10;1.95;;;11.40;99.90;;;;;;4863477;29;20041;-88
2022/04/25 15:04:53;;;;;;;3.90;1.63;;;11.40;99.90;;;;;;4874133;29;20116;-90
2022/04/25 15:07:20;;;;;;;2.67;1.67;;;11.10;99.90;;;;;;4860941;29;20707;-90
2022/04/25 15:09:47;;;;;;;4.45;1.65;;;11.20;99.90;;;;;;4860415;29;20407;-90
2022/04/25 15:12:14;;;;;;;5.82;2.10;;;11.20;99.90;;;;;;4860429;29;20057;-89
2022/04/25 15:14:42;;;;;;;4.85;1.63;;;11.30;99.90;;;;;;4845596;29;20041;-90
2022/04/25 15:17:09;;;;;;;7.53;1.80;;;11.20;99.90;;;;;;4856987;29;20492;-89
2022/04/25 15:19:37;;;;;;;5.43;2.63;;;11.20;99.90;;;;;;4844097;29;20049;-89
2022/04/25 15:22:05;;;;;;;6.72;1.73;;;11.10;99.90;;;;;;4860942;29;20037;-90
2022/04/25 15:24:34;;;;;;;4.28;1.65;;;11.40;99.90;;;;;;4860192;29;20050;-91
2022/04/25 15:27:03;;;;;;;6.30;2.00;;;11.20;99.90;;;;;;4861036;29;20075;-89
2022/04/25 15:29:31;;;;;;;8.88;1.73;;;11.10;99.90;;;;;;4875530;29;20057;-89
2022/04/25 15:31:59;;;;;;;5.43;1.92;;;11.30;99.90;;;;;;4859661;29;20121;-90
2022/04/25 15:34:28;;;;;;;3.05;1.52;;;11.20;99.90;;;;;;4878310;29;20234;-89
2022/04/25 15:36:57;;;;;;;4.25;2.13;;;11.30;99.90;;;;;;4874241;29;20049;-88
2022/04/25 15:39:24;;;;;;;8.02;2.22;;;11.40;99.90;;;;;;4879817;29;20048;-89
2022/04/25 15:41:51;;;;;;;3.47;1.48;;;11.50;99.90;;;;;;4879874;29;20052;-89
2022/04/25 15:44:19;;;;;;;8.57;2.15;;;11.50;99.90;;;;;;4879360;29;20060;-91
2022/04/25 15:46:48;;;;;;;8.70;2.35;;;11.50;99.90;;;;;;4880648;29;20053;-90
2022/04/25 15:49:15;;;;;;;10.18;1.90;;;11.40;99.90;;;;;;4878675;29;20045;-87
2022/04/25 15:51:42;;;;;;;12.23;1.95;;;11.50;99.90;;;;;;4878465;29;20053;-89
2022/04/25 15:59:47;;;;;;;9.07;2.05;;;11.50;99.90;;;;;;4865904;29;20141;-91
2022/04/25 16:02:16;;;;;;;6.30;2.10;;;11.60;99.90;;;;;;4869881;29;20049;-89
2022/04/25 16:04:49;;;;;;;10.55;2.25;;;11.50;99.90;;;;;;4869193;29;20056;-91